createdAt,value
2022-10-25T01:13:28.394Z,14.98
2022-10-25T01:16:11.468Z,14.97
2022-10-25T01:19:06.168Z,14.96
2022-10-25T01:21:47.520Z,14.94
2022-10-25T01:24:53.446Z,14.95
2022-10-25T01:28:15.707Z,14.93
2022-10-25T01:31:22.406Z,14.90
2022-10-25T01:34:03.222Z,14.88
2022-10-25T01:36:52.626Z,14.87
2022-10-25T01:39:31.052Z,14.86
2022-10-25T01:42:09.546Z,14.87
2022-10-25T01:45:21.297Z,14.87
2022-10-25T01:48:10.035Z,14.86
2022-10-25T01:50:47.633Z,14.83
2022-10-25T01:53:18.275Z,14.80
2022-10-25T01:55:59.652Z,14.78
2022-10-25T01:58:48.249Z,14.77
2022-10-25T02:01:30.427Z,14.75
2022-10-25T02:04:08.531Z,14.75
2022-10-25T02:06:49.066Z,14.74
2022-10-25T02:09:34.992Z,14.73
2022-10-25T02:12:09.512Z,14.74
2022-10-25T02:14:42.127Z,14.72
2022-10-25T02:17:21.135Z,14.69
2022-10-25T02:19:59.214Z,14.66
2022-10-25T02:22:33.306Z,14.63
2022-10-25T02:25:03.762Z,14.59
2022-10-25T02:27:35.534Z,14.59
2022-10-25T02:30:07.195Z,14.60
2022-10-25T02:32:37.987Z,14.58
2022-10-25T02:35:16.314Z,14.57
2022-10-25T02:37:47.103Z,14.55
2022-10-25T02:40:18.012Z,14.52
2022-10-25T02:42:48.241Z,14.48
2022-10-25T02:45:18.526Z,14.48
2022-10-25T02:47:49.214Z,14.46
2022-10-25T02:50:19.995Z,14.44
2022-10-25T02:52:50.346Z,14.41
2022-10-25T02:55:20.745Z,14.38
2022-10-25T02:57:51.074Z,14.36
2022-10-25T03:00:21.563Z,14.34
2022-10-25T03:02:57.137Z,14.32
2022-10-25T03:05:27.510Z,14.32
2022-10-25T03:07:57.932Z,14.31
2022-10-25T03:10:28.321Z,14.30
2022-10-25T03:12:58.901Z,14.27
2022-10-25T03:15:33.331Z,14.24
2022-10-25T03:18:03.842Z,14.20
2022-10-25T03:20:34.392Z,14.21
2022-10-25T03:23:05.170Z,14.20
2022-10-25T03:25:35.625Z,14.19
2022-10-25T03:28:06.132Z,14.17
2022-10-25T03:30:37.131Z,14.15
2022-10-25T03:33:08.813Z,14.11
2022-10-25T03:35:39.432Z,14.07
2022-10-25T03:38:09.972Z,14.08
2022-10-25T03:40:40.512Z,14.06
2022-10-25T03:43:11.153Z,14.05
2022-10-25T03:45:41.732Z,14.04
2022-10-25T03:48:12.413Z,14.03
2022-10-25T03:50:43.432Z,14.01
2022-10-25T03:53:13.890Z,13.99
2022-10-25T03:55:44.262Z,13.98
2022-10-25T03:58:16.593Z,13.96
2022-10-25T04:00:47.144Z,13.95
2022-10-25T04:03:17.622Z,13.93
2022-10-25T04:05:47.991Z,13.92
2022-10-25T04:08:18.492Z,13.88
2022-10-25T04:10:49.046Z,13.86
2022-10-25T04:13:19.737Z,13.85
2022-10-25T04:15:50.089Z,13.84
2022-10-25T04:18:21.369Z,13.82
2022-10-25T04:20:53.297Z,13.78
2022-10-25T04:23:23.713Z,13.75
2022-10-25T04:25:57.049Z,13.74
2022-10-25T04:28:29.768Z,13.71
2022-10-25T04:31:03.100Z,13.66
2022-10-25T04:33:33.493Z,13.65
2022-10-25T04:36:04.126Z,13.64
2022-10-25T04:38:37.068Z,13.60
2022-10-25T04:41:07.896Z,13.58
2022-10-25T04:43:38.595Z,13.56
2022-10-25T04:46:09.627Z,13.54
2022-10-25T04:48:41.266Z,13.51
2022-10-25T04:51:13.274Z,13.46
2022-10-25T04:53:43.857Z,13.45
2022-10-25T04:56:15.786Z,13.44
2022-10-25T04:58:46.293Z,13.43
2022-10-25T05:01:18.836Z,13.44
2022-10-25T05:03:49.646Z,13.42
2022-10-25T05:06:24.233Z,13.39
2022-10-25T05:08:55.633Z,13.35
